sensor_id;sensor_type;location;lat;lon;timestamp;temperature;humidity
796;DHT22;381;48.770;9.188;2023-02-28T00:03:00;3.50;68.90
796;DHT22;381;48.770;9.188;2023-02-28T00:08:04;3.50;68.60
796;DHT22;381;48.770;9.188;2023-02-28T00:13:06;3.40;69.50
796;DHT22;381;48.770;9.188;2023-02-28T00:18:08;3.40;69.60
796;DHT22;381;48.770;9.188;2023-02-28T00:23:12;3.30;69.70
796;DHT22;381;48.770;9.188;2023-02-28T00:28:14;3.30;70.10
796;DHT22;381;48.770;9.188;2023-02-28T00:33:16;3.20;69.40
796;DHT22;381;48.770;9.188;2023-02-28T00:38:19;3.10;66.60
796;DHT22;381;48.770;9.188;2023-02-28T00:43:21;3.00;67.10
796;DHT22;381;48.770;9.188;2023-02-28T00:48:24;2.80;67.00
796;DHT22;381;48.770;9.188;2023-02-28T00:53:27;2.70;70.40
796;DHT22;381;48.770;9.188;2023-02-28T00:58:32;2.80;71.70
796;DHT22;381;48.770;9.188;2023-02-28T01:03:34;2.80;71.10
796;DHT22;381;48.770;9.188;2023-02-28T01:08:37;2.80;70.10
796;DHT22;381;48.770;9.188;2023-02-28T01:13:39;2.80;71.90
796;DHT22;381;48.770;9.188;2023-02-28T01:18:42;2.90;71.90
796;DHT22;381;48.770;9.188;2023-02-28T01:23:46;2.90;71.80
796;DHT22;381;48.770;9.188;2023-02-28T01:28:49;2.90;71.50
796;DHT22;381;48.770;9.188;2023-02-28T01:33:52;2.90;71.60
796;DHT22;381;48.770;9.188;2023-02-28T01:38:55;2.90;73.00
796;DHT22;381;48.770;9.188;2023-02-28T01:44:03;2.90;70.40
796;DHT22;381;48.770;9.188;2023-02-28T01:49:09;2.80;72.40
796;DHT22;381;48.770;9.188;2023-02-28T01:54:16;2.90;72.00
796;DHT22;381;48.770;9.188;2023-02-28T01:59:24;2.90;73.20
796;DHT22;381;48.770;9.188;2023-02-28T02:04:35;2.90;74.20
796;DHT22;381;48.770;9.188;2023-02-28T02:09:41;2.90;72.20
796;DHT22;381;48.770;9.188;2023-02-28T02:14:57;2.90;72.20
796;DHT22;381;48.770;9.188;2023-02-28T02:20:35;2.90;73.90
796;DHT22;381;48.770;9.188;2023-02-28T02:25:43;2.90;74.10
796;DHT22;381;48.770;9.188;2023-02-28T02:31:23;2.90;75.10
796;DHT22;381;48.770;9.188;2023-02-28T02:36:51;3.00;75.50
796;DHT22;381;48.770;9.188;2023-02-28T02:42:02;3.00;75.10
796;DHT22;381;48.770;9.188;2023-02-28T02:47:12;3.10;74.70
796;DHT22;381;48.770;9.188;2023-02-28T02:52:23;3.10;76.10
796;DHT22;381;48.770;9.188;2023-02-28T02:57:32;3.10;75.90
796;DHT22;381;48.770;9.188;2023-02-28T03:02:40;3.10;75.10
796;DHT22;381;48.770;9.188;2023-02-28T03:07:44;3.10;75.40
796;DHT22;381;48.770;9.188;2023-02-28T03:12:55;3.00;75.20
796;DHT22;381;48.770;9.188;2023-02-28T03:18:05;3.00;77.20
796;DHT22;381;48.770;9.188;2023-02-28T03:23:17;3.10;77.00
796;DHT22;381;48.770;9.188;2023-02-28T03:28:29;3.10;76.90
796;DHT22;381;48.770;9.188;2023-02-28T03:33:38;3.20;76.60
796;DHT22;381;48.770;9.188;2023-02-28T03:38:45;3.20;77.70
796;DHT22;381;48.770;9.188;2023-02-28T03:43:52;3.20;77.40
796;DHT22;381;48.770;9.188;2023-02-28T03:48:59;3.20;78.30
796;DHT22;381;48.770;9.188;2023-02-28T03:54:08;3.30;76.20
796;DHT22;381;48.770;9.188;2023-02-28T03:59:15;3.30;78.60
796;DHT22;381;48.770;9.188;2023-02-28T04:04:18;3.30;77.40
796;DHT22;381;48.770;9.188;2023-02-28T04:09:21;3.30;77.30
796;DHT22;381;48.770;9.188;2023-02-28T04:14:24;3.30;76.90
796;DHT22;381;48.770;9.188;2023-02-28T04:19:26;3.30;76.60
796;DHT22;381;48.770;9.188;2023-02-28T04:24:30;3.20;77.40
796;DHT22;381;48.770;9.188;2023-02-28T04:29:32;3.20;78.40
796;DHT22;381;48.770;9.188;2023-02-28T04:34:34;3.20;78.70
796;DHT22;381;48.770;9.188;2023-02-28T04:39:37;3.30;78.20
796;DHT22;381;48.770;9.188;2023-02-28T04:44:40;3.30;78.40
796;DHT22;381;48.770;9.188;2023-02-28T04:49:42;3.30;78.30
796;DHT22;381;48.770;9.188;2023-02-28T04:54:45;3.40;78.90
796;DHT22;381;48.770;9.188;2023-02-28T04:59:47;3.30;78.30
796;DHT22;381;48.770;9.188;2023-02-28T05:04:49;3.40;79.00
796;DHT22;381;48.770;9.188;2023-02-28T05:09:53;3.40;79.00
796;DHT22;381;48.770;9.188;2023-02-28T05:14:58;3.40;79.00
796;DHT22;381;48.770;9.188;2023-02-28T05:20:01;3.40;79.10
796;DHT22;381;48.770;9.188;2023-02-28T05:25:09;3.50;79.20
796;DHT22;381;48.770;9.188;2023-02-28T05:30:13;3.50;79.50
796;DHT22;381;48.770;9.188;2023-02-28T05:35:15;3.50;79.40
796;DHT22;381;48.770;9.188;2023-02-28T05:40:19;3.50;78.70
796;DHT22;381;48.770;9.188;2023-02-28T05:45:21;3.50;79.40
796;DHT22;381;48.770;9.188;2023-02-28T05:50:23;3.50;79.80
796;DHT22;381;48.770;9.188;2023-02-28T05:55:27;3.60;80.20
796;DHT22;381;48.770;9.188;2023-02-28T06:00:29;3.60;79.30
796;DHT22;381;48.770;9.188;2023-02-28T06:05:31;3.50;79.40
796;DHT22;381;48.770;9.188;2023-02-28T06:10:35;3.50;79.10
796;DHT22;381;48.770;9.188;2023-02-28T06:15:37;3.50;80.30
796;DHT22;381;48.770;9.188;2023-02-28T06:20:39;3.50;80.50
796;DHT22;381;48.770;9.188;2023-02-28T06:25:46;3.60;80.40
796;DHT22;381;48.770;9.188;2023-02-28T06:30:48;3.60;80.80
796;DHT22;381;48.770;9.188;2023-02-28T06:35:50;3.60;79.70
796;DHT22;381;48.770;9.188;2023-02-28T06:40:54;3.50;80.80
796;DHT22;381;48.770;9.188;2023-02-28T06:46:00;3.50;80.70
796;DHT22;381;48.770;9.188;2023-02-28T06:51:05;3.60;81.00
796;DHT22;381;48.770;9.188;2023-02-28T06:56:11;3.70;80.80
796;DHT22;381;48.770;9.188;2023-02-28T07:01:13;3.70;79.40
796;DHT22;381;48.770;9.188;2023-02-28T07:06:15;3.70;79.70
796;DHT22;381;48.770;9.188;2023-02-28T07:11:20;3.70;79.30
796;DHT22;381;48.770;9.188;2023-02-28T07:16:24;3.80;78.40
796;DHT22;381;48.770;9.188;2023-02-28T07:21:26;3.70;79.20
796;DHT22;381;48.770;9.188;2023-02-28T07:26:29;3.70;77.90
796;DHT22;381;48.770;9.188;2023-02-28T07:31:31;3.80;78.10
796;DHT22;381;48.770;9.188;2023-02-28T07:36:33;3.90;78.70
796;DHT22;381;48.770;9.188;2023-02-28T07:41:37;3.90;78.00
796;DHT22;381;48.770;9.188;2023-02-28T07:46:43;4.00;77.60
796;DHT22;381;48.770;9.188;2023-02-28T07:51:45;4.10;75.70
796;DHT22;381;48.770;9.188;2023-02-28T07:56:49;4.00;75.20
796;DHT22;381;48.770;9.188;2023-02-28T08:01:51;4.00;75.50
796;DHT22;381;48.770;9.188;2023-02-28T08:06:53;4.00;75.30
796;DHT22;381;48.770;9.188;2023-02-28T08:11:58;4.00;75.80
796;DHT22;381;48.770;9.188;2023-02-28T08:17:00;4.00;76.90
796;DHT22;381;48.770;9.188;2023-02-28T08:22:03;4.10;77.10
796;DHT22;381;48.770;9.188;2023-02-28T08:27:06;4.20;76.50
796;DHT22;381;48.770;9.188;2023-02-28T08:32:08;4.20;76.30
796;DHT22;381;48.770;9.188;2023-02-28T08:37:10;4.30;77.30
796;DHT22;381;48.770;9.188;2023-02-28T08:42:14;4.40;76.10
796;DHT22;381;48.770;9.188;2023-02-28T08:47:17;4.50;75.70
796;DHT22;381;48.770;9.188;2023-02-28T08:52:19;4.60;75.00
796;DHT22;381;48.770;9.188;2023-02-28T08:57:23;4.60;75.90
796;DHT22;381;48.770;9.188;2023-02-28T09:02:26;4.60;74.70
796;DHT22;381;48.770;9.188;2023-02-28T09:07:28;4.60;74.70
796;DHT22;381;48.770;9.188;2023-02-28T09:12:34;4.60;74.50
796;DHT22;381;48.770;9.188;2023-02-28T09:17:36;4.70;75.20
796;DHT22;381;48.770;9.188;2023-02-28T09:22:38;4.80;74.50
796;DHT22;381;48.770;9.188;2023-02-28T09:27:42;4.90;75.40
796;DHT22;381;48.770;9.188;2023-02-28T09:32:44;5.00;74.50
796;DHT22;381;48.770;9.188;2023-02-28T09:37:52;5.10;75.00
796;DHT22;381;48.770;9.188;2023-02-28T09:42:57;5.20;74.10
796;DHT22;381;48.770;9.188;2023-02-28T09:48:04;5.30;74.60
796;DHT22;381;48.770;9.188;2023-02-28T09:53:15;5.40;73.90
796;DHT22;381;48.770;9.188;2023-02-28T09:58:28;5.40;72.90
796;DHT22;381;48.770;9.188;2023-02-28T10:03:35;5.50;72.00
796;DHT22;381;48.770;9.188;2023-02-28T10:08:45;5.40;72.80
796;DHT22;381;48.770;9.188;2023-02-28T10:13:59;5.50;71.30
796;DHT22;381;48.770;9.188;2023-02-28T10:19:09;5.40;71.00
796;DHT22;381;48.770;9.188;2023-02-28T10:24:21;5.40;70.90
796;DHT22;381;48.770;9.188;2023-02-28T10:29:26;5.40;73.30
796;DHT22;381;48.770;9.188;2023-02-28T10:34:28;5.50;72.90
796;DHT22;381;48.770;9.188;2023-02-28T10:39:38;5.70;72.60
796;DHT22;381;48.770;9.188;2023-02-28T10:44:42;5.90;72.50
796;DHT22;381;48.770;9.188;2023-02-28T10:49:47;6.10;71.50
796;DHT22;381;48.770;9.188;2023-02-28T10:55:14;6.00;70.60
796;DHT22;381;48.770;9.188;2023-02-28T11:00:21;6.00;69.80
796;DHT22;381;48.770;9.188;2023-02-28T11:05:26;5.90;71.00
796;DHT22;381;48.770;9.188;2023-02-28T11:10:30;5.70;72.20
796;DHT22;381;48.770;9.188;2023-02-28T11:15:36;5.70;73.50
796;DHT22;381;48.770;9.188;2023-02-28T11:20:39;5.70;72.20
796;DHT22;381;48.770;9.188;2023-02-28T11:25:47;5.70;72.90
796;DHT22;381;48.770;9.188;2023-02-28T11:31:00;5.60;73.10
796;DHT22;381;48.770;9.188;2023-02-28T11:36:08;5.70;73.60
796;DHT22;381;48.770;9.188;2023-02-28T11:41:22;5.70;74.60
796;DHT22;381;48.770;9.188;2023-02-28T11:46:34;5.80;74.10
796;DHT22;381;48.770;9.188;2023-02-28T11:51:47;5.80;71.80
796;DHT22;381;48.770;9.188;2023-02-28T11:56:53;5.80;73.90
796;DHT22;381;48.770;9.188;2023-02-28T12:02:18;5.80;72.30
796;DHT22;381;48.770;9.188;2023-02-28T12:07:29;5.90;71.50
796;DHT22;381;48.770;9.188;2023-02-28T12:12:39;5.90;70.10
796;DHT22;381;48.770;9.188;2023-02-28T12:17:55;5.80;72.30
796;DHT22;381;48.770;9.188;2023-02-28T12:23:10;5.80;73.60
796;DHT22;381;48.770;9.188;2023-02-28T12:28:21;6.00;70.80
796;DHT22;381;48.770;9.188;2023-02-28T12:33:31;6.00;69.00
796;DHT22;381;48.770;9.188;2023-02-28T12:38:37;5.90;73.10
796;DHT22;381;48.770;9.188;2023-02-28T12:43:43;6.00;72.40
796;DHT22;381;48.770;9.188;2023-02-28T12:48:50;6.00;72.10
796;DHT22;381;48.770;9.188;2023-02-28T12:53:59;6.10;70.80
796;DHT22;381;48.770;9.188;2023-02-28T12:59:12;6.00;70.00
796;DHT22;381;48.770;9.188;2023-02-28T13:04:36;6.10;71.00
796;DHT22;381;48.770;9.188;2023-02-28T13:09:52;6.10;71.30
796;DHT22;381;48.770;9.188;2023-02-28T13:15:05;6.20;69.40
796;DHT22;381;48.770;9.188;2023-02-28T13:20:18;6.20;72.50
796;DHT22;381;48.770;9.188;2023-02-28T13:25:52;6.40;70.50
796;DHT22;381;48.770;9.188;2023-02-28T13:31:05;6.50;69.00
796;DHT22;381;48.770;9.188;2023-02-28T13:36:23;6.40;70.20
796;DHT22;381;48.770;9.188;2023-02-28T13:41:44;6.40;70.80
796;DHT22;381;48.770;9.188;2023-02-28T13:47:24;6.60;69.80
796;DHT22;381;48.770;9.188;2023-02-28T13:52:31;6.70;71.20
796;DHT22;381;48.770;9.188;2023-02-28T13:57:44;6.80;67.80
796;DHT22;381;48.770;9.188;2023-02-28T14:03:18;6.70;70.20
796;DHT22;381;48.770;9.188;2023-02-28T14:08:25;6.80;67.80
796;DHT22;381;48.770;9.188;2023-02-28T14:13:39;6.80;70.60
796;DHT22;381;48.770;9.188;2023-02-28T14:18:50;6.80;71.40
796;DHT22;381;48.770;9.188;2023-02-28T14:24:20;7.00;68.40
796;DHT22;381;48.770;9.188;2023-02-28T14:29:37;7.00;68.00
796;DHT22;381;48.770;9.188;2023-02-28T14:34:48;6.90;70.50
796;DHT22;381;48.770;9.188;2023-02-28T14:39:54;7.00;70.40
796;DHT22;381;48.770;9.188;2023-02-28T14:44:59;7.00;70.00
796;DHT22;381;48.770;9.188;2023-02-28T14:50:04;7.10;70.60
796;DHT22;381;48.770;9.188;2023-02-28T14:55:13;7.10;70.00
796;DHT22;381;48.770;9.188;2023-02-28T15:00:21;7.20;67.70
796;DHT22;381;48.770;9.188;2023-02-28T15:05:27;7.10;69.40
796;DHT22;381;48.770;9.188;2023-02-28T15:10:31;7.10;71.60
796;DHT22;381;48.770;9.188;2023-02-28T15:15:41;7.20;68.80
796;DHT22;381;48.770;9.188;2023-02-28T15:20:44;7.20;71.50
796;DHT22;381;48.770;9.188;2023-02-28T15:25:48;7.20;71.90
796;DHT22;381;48.770;9.188;2023-02-28T15:30:56;7.20;73.10
796;DHT22;381;48.770;9.188;2023-02-28T15:36:14;7.20;69.60
796;DHT22;381;48.770;9.188;2023-02-28T15:41:27;7.20;72.10
796;DHT22;381;48.770;9.188;2023-02-28T15:46:29;7.30;68.70
796;DHT22;381;48.770;9.188;2023-02-28T15:51:34;7.20;71.70
796;DHT22;381;48.770;9.188;2023-02-28T15:56:43;7.20;71.10
796;DHT22;381;48.770;9.188;2023-02-28T16:01:46;7.20;69.90
796;DHT22;381;48.770;9.188;2023-02-28T16:07:00;7.20;72.10
796;DHT22;381;48.770;9.188;2023-02-28T16:12:08;7.20;72.10
796;DHT22;381;48.770;9.188;2023-02-28T16:17:19;7.20;70.70
796;DHT22;381;48.770;9.188;2023-02-28T16:22:22;7.10;72.00
796;DHT22;381;48.770;9.188;2023-02-28T16:27:31;7.10;71.60
796;DHT22;381;48.770;9.188;2023-02-28T16:32:35;7.00;72.00
796;DHT22;381;48.770;9.188;2023-02-28T16:37:37;7.00;72.20
796;DHT22;381;48.770;9.188;2023-02-28T16:42:41;7.00;73.50
796;DHT22;381;48.770;9.188;2023-02-28T16:47:43;7.00;75.40
796;DHT22;381;48.770;9.188;2023-02-28T16:52:46;6.90;74.80
796;DHT22;381;48.770;9.188;2023-02-28T16:57:53;6.90;75.20
796;DHT22;381;48.770;9.188;2023-02-28T17:02:56;6.80;73.90
796;DHT22;381;48.770;9.188;2023-02-28T17:07:59;6.80;74.20
796;DHT22;381;48.770;9.188;2023-02-28T17:13:12;6.70;75.00
796;DHT22;381;48.770;9.188;2023-02-28T17:18:16;6.70;75.30
796;DHT22;381;48.770;9.188;2023-02-28T17:23:20;6.60;75.70
796;DHT22;381;48.770;9.188;2023-02-28T17:28:29;6.50;74.80
796;DHT22;381;48.770;9.188;2023-02-28T17:33:31;6.50;75.70
796;DHT22;381;48.770;9.188;2023-02-28T17:38:33;6.50;73.10
796;DHT22;381;48.770;9.188;2023-02-28T17:43:36;6.30;74.70
796;DHT22;381;48.770;9.188;2023-02-28T17:48:38;6.30;74.10
796;DHT22;381;48.770;9.188;2023-02-28T17:53:40;6.20;75.60
796;DHT22;381;48.770;9.188;2023-02-28T17:58:44;6.10;75.60
796;DHT22;381;48.770;9.188;2023-02-28T18:03:46;6.10;76.00
796;DHT22;381;48.770;9.188;2023-02-28T18:08:48;6.00;76.10
796;DHT22;381;48.770;9.188;2023-02-28T18:13:53;5.90;75.60
796;DHT22;381;48.770;9.188;2023-02-28T18:18:56;5.80;76.20
796;DHT22;381;48.770;9.188;2023-02-28T18:23:58;5.70;75.90
796;DHT22;381;48.770;9.188;2023-02-28T18:29:02;5.50;76.20
796;DHT22;381;48.770;9.188;2023-02-28T18:34:08;5.30;77.70
796;DHT22;381;48.770;9.188;2023-02-28T18:39:12;5.10;78.30
796;DHT22;381;48.770;9.188;2023-02-28T18:44:15;5.00;79.10
796;DHT22;381;48.770;9.188;2023-02-28T18:49:18;4.90;78.60
796;DHT22;381;48.770;9.188;2023-02-28T18:54:20;4.80;78.60
796;DHT22;381;48.770;9.188;2023-02-28T18:59:25;4.70;79.10
796;DHT22;381;48.770;9.188;2023-02-28T19:04:27;4.50;79.30
796;DHT22;381;48.770;9.188;2023-02-28T19:09:36;4.40;79.70
796;DHT22;381;48.770;9.188;2023-02-28T19:14:39;4.30;80.20
796;DHT22;381;48.770;9.188;2023-02-28T19:19:41;4.30;79.30
796;DHT22;381;48.770;9.188;2023-02-28T19:24:44;4.20;79.80
796;DHT22;381;48.770;9.188;2023-02-28T19:29:49;4.10;80.20
796;DHT22;381;48.770;9.188;2023-02-28T19:34:54;4.00;80.70
796;DHT22;381;48.770;9.188;2023-02-28T19:39:56;4.00;80.90
796;DHT22;381;48.770;9.188;2023-02-28T19:45:05;3.90;80.90
796;DHT22;381;48.770;9.188;2023-02-28T19:50:10;3.90;81.50
796;DHT22;381;48.770;9.188;2023-02-28T19:55:12;3.80;81.50
796;DHT22;381;48.770;9.188;2023-02-28T20:00:19;3.80;81.50
796;DHT22;381;48.770;9.188;2023-02-28T20:05:24;3.80;82.00
796;DHT22;381;48.770;9.188;2023-02-28T20:10:26;3.70;81.80
796;DHT22;381;48.770;9.188;2023-02-28T20:15:30;3.70;82.50
796;DHT22;381;48.770;9.188;2023-02-28T20:20:33;3.70;81.90
796;DHT22;381;48.770;9.188;2023-02-28T20:25:38;3.60;82.80
796;DHT22;381;48.770;9.188;2023-02-28T20:30:41;3.50;82.40
796;DHT22;381;48.770;9.188;2023-02-28T20:35:45;3.50;82.60
796;DHT22;381;48.770;9.188;2023-02-28T20:40:52;3.50;83.10
796;DHT22;381;48.770;9.188;2023-02-28T20:45:57;3.50;82.90
796;DHT22;381;48.770;9.188;2023-02-28T20:51:02;3.40;83.00
796;DHT22;381;48.770;9.188;2023-02-28T20:56:06;3.40;83.40
796;DHT22;381;48.770;9.188;2023-02-28T21:01:14;3.40;83.60
796;DHT22;381;48.770;9.188;2023-02-28T21:06:17;3.30;83.40
796;DHT22;381;48.770;9.188;2023-02-28T21:11:23;3.30;83.00
796;DHT22;381;48.770;9.188;2023-02-28T21:16:27;3.20;83.60
796;DHT22;381;48.770;9.188;2023-02-28T21:21:31;3.20;83.60
796;DHT22;381;48.770;9.188;2023-02-28T21:26:33;3.20;83.50
796;DHT22;381;48.770;9.188;2023-02-28T21:31:37;3.10;83.80
796;DHT22;381;48.770;9.188;2023-02-28T21:36:41;3.10;84.00
796;DHT22;381;48.770;9.188;2023-02-28T21:41:45;3.20;84.00
796;DHT22;381;48.770;9.188;2023-02-28T21:46:50;3.10;83.80
796;DHT22;381;48.770;9.188;2023-02-28T21:51:54;3.00;84.10
796;DHT22;381;48.770;9.188;2023-02-28T21:56:56;3.00;84.40
796;DHT22;381;48.770;9.188;2023-02-28T22:02:00;3.00;84.60
796;DHT22;381;48.770;9.188;2023-02-28T22:07:05;3.00;84.70
796;DHT22;381;48.770;9.188;2023-02-28T22:12:07;3.00;84.70
796;DHT22;381;48.770;9.188;2023-02-28T22:17:10;3.00;84.70
796;DHT22;381;48.770;9.188;2023-02-28T22:22:12;3.00;84.20
796;DHT22;381;48.770;9.188;2023-02-28T22:27:17;3.00;84.80
796;DHT22;381;48.770;9.188;2023-02-28T22:32:21;3.10;84.50
796;DHT22;381;48.770;9.188;2023-02-28T22:37:26;3.00;84.80
796;DHT22;381;48.770;9.188;2023-02-28T22:42:31;3.00;85.30
796;DHT22;381;48.770;9.188;2023-02-28T22:47:35;3.00;85.30
796;DHT22;381;48.770;9.188;2023-02-28T22:52:38;3.00;85.30
796;DHT22;381;48.770;9.188;2023-02-28T22:57:41;3.10;85.10
796;DHT22;381;48.770;9.188;2023-02-28T23:02:44;3.00;85.70
796;DHT22;381;48.770;9.188;2023-02-28T23:07:47;3.00;84.80
796;DHT22;381;48.770;9.188;2023-02-28T23:12:49;2.90;85.30
796;DHT22;381;48.770;9.188;2023-02-28T23:17:52;2.90;85.60
796;DHT22;381;48.770;9.188;2023-02-28T23:22:54;2.80;85.40
796;DHT22;381;48.770;9.188;2023-02-28T23:27:56;2.80;85.80
796;DHT22;381;48.770;9.188;2023-02-28T23:33:00;2.80;85.90
796;DHT22;381;48.770;9.188;2023-02-28T23:38:02;2.80;85.40
796;DHT22;381;48.770;9.188;2023-02-28T23:43:04;2.80;85.50
796;DHT22;381;48.770;9.188;2023-02-28T23:48:08;2.70;85.00
796;DHT22;381;48.770;9.188;2023-02-28T23:53:10;2.70;84.80
796;DHT22;381;48.770;9.188;2023-02-28T23:58:12;2.60;85.50
